Time;durP1;ratioP1;P1;durP2;ratioP2;P2;SDS_P1;SDS_P2;PMS_P1;PMS_P2;Temp;Humidity;BMP_temperature;BMP_pressure;BME280_temperature;BME280_humidity;BME280_pressure;Samples;Min_cycle;Max_cycle;Signal;HPM_P1;HPM_P2
2023/08/15 00:01:21;;;;;;;10.20;6.63;;;;;;;24.15;nan;99281.59;4957307;28;20254;-74
2023/08/15 00:03:47;;;;;;;8.67;6.90;;;;;;;24.09;nan;99280.53;4955602;28;20191;-72
2023/08/15 00:06:13;;;;;;;11.60;7.90;;;;;;;24.02;nan;99277.75;4953436;28;20223;-74
2023/08/15 00:08:42;;;;;;;7.60;6.80;;;;;;;23.96;nan;99267.81;4957433;28;20192;-76
2023/08/15 00:11:08;;;;;;;12.50;6.73;;;;;;;23.93;nan;99270.88;4958358;28;20984;-76
2023/08/15 00:13:34;;;;;;;8.70;6.97;;;;;;;23.93;nan;99265.50;4956131;28;20460;-76
2023/08/15 00:15:59;;;;;;;8.27;7.60;;;;;;;23.95;nan;99262.63;4957502;28;20467;-76
2023/08/15 00:18:25;;;;;;;10.07;7.20;;;;;;;23.96;nan;99265.13;4957352;28;20983;-76
2023/08/15 00:20:50;;;;;;;7.20;6.60;;;;;;;23.97;nan;99276.69;4958256;28;20211;-76
2023/08/15 00:23:16;;;;;;;9.07;8.17;;;;;;;24.01;nan;99281.47;4957815;28;20212;-76
2023/08/15 00:25:42;;;;;;;9.43;7.07;;;;;;;24.07;nan;99275.31;4955357;28;20211;-76
2023/08/15 00:28:11;;;;;;;9.27;6.63;;;;;;;24.10;nan;99268.75;4956605;28;20202;-77
2023/08/15 00:30:37;;;;;;;7.73;7.00;;;;;;;24.12;nan;99264.03;4957661;28;20450;-76
2023/08/15 00:33:03;;;;;;;8.10;7.33;;;;;;;24.13;nan;99264.84;4958471;28;20478;-77
2023/08/15 00:35:28;;;;;;;7.68;6.60;;;;;;;24.17;nan;99268.78;4955827;28;21009;-77
2023/08/15 00:37:53;;;;;;;8.00;7.10;;;;;;;24.21;nan;99270.91;4956730;28;20202;-77
2023/08/15 00:40:19;;;;;;;7.53;6.63;;;;;;;24.25;nan;99271.38;4958657;28;20210;-77
2023/08/15 00:42:46;;;;;;;7.73;6.93;;;;;;;24.25;nan;99266.00;4961387;28;20274;-77
2023/08/15 00:45:11;;;;;;;7.07;6.47;;;;;;;24.24;nan;99256.25;4960392;28;20509;-77
2023/08/15 00:47:38;;;;;;;7.37;6.53;;;;;;;24.24;nan;99253.59;4947678;28;20703;-77
2023/08/15 00:50:06;;;;;;;8.07;7.27;;;;;;;24.23;nan;99259.97;4962657;28;20195;-77
2023/08/15 00:52:35;;;;;;;9.47;7.00;;;;;;;24.24;nan;99262.47;4960900;28;20982;-77
2023/08/15 00:55:04;;;;;;;9.17;7.00;;;;;;;24.26;nan;99263.09;4945636;28;20457;-77
2023/08/15 00:57:30;;;;;;;8.50;6.80;;;;;;;24.25;nan;99256.09;4960364;28;20556;-77
2023/08/15 00:59:55;;;;;;;7.80;7.00;;;;;;;24.24;nan;99243.66;4959698;28;20586;-77
2023/08/15 01:02:21;;;;;;;8.73;6.90;;;;;;;24.20;nan;99241.59;4947893;28;20456;-77
2023/08/15 01:04:49;;;;;;;8.60;6.90;;;;;;;24.18;nan;99246.31;4960341;28;20239;-76
2023/08/15 01:07:17;;;;;;;8.13;7.30;;;;;;;24.17;nan;99244.63;4959392;28;20291;-77
2023/08/15 01:09:43;;;;;;;7.23;6.57;;;;;;;24.17;nan;99247.31;4958890;28;20538;-77
2023/08/15 01:12:27;;;;;;;9.70;7.40;;;;;;;24.16;nan;99254.53;4962791;28;20537;-77
2023/08/15 01:15:06;;;;;;;6.73;5.97;;;;;;;24.16;nan;99261.78;4958870;28;20652;-77
2023/08/15 01:17:46;;;;;;;8.10;7.33;;;;;;;24.15;nan;99258.28;4959812;28;20458;-77
2023/08/15 01:20:17;;;;;;;10.27;7.00;;;;;;;24.14;nan;99274.53;4961129;28;23303;-77
2023/08/15 01:22:46;;;;;;;7.27;6.60;;;;;;;24.12;nan;99271.25;4958555;28;20467;-77
2023/08/15 01:25:12;;;;;;;7.37;6.67;;;;;;;24.10;nan;99276.78;4956508;28;20481;-77
2023/08/15 01:27:37;;;;;;;7.93;6.70;;;;;;;24.07;nan;99274.50;4944060;28;20455;-76
2023/08/15 01:30:04;;;;;;;8.50;7.63;;;;;;;24.03;nan;99271.38;4957865;28;20278;-77
2023/08/15 01:33:09;;;;;;;7.97;7.23;;;;;;;24.00;nan;99263.69;4960913;28;20255;-77
2023/08/15 01:35:38;;;;;;;11.53;7.87;;;;;;;23.96;nan;99272.34;4961396;28;20469;-76
2023/08/15 01:38:36;;;;;;;9.90;7.03;;;;;;;23.90;nan;99255.16;4945258;28;20533;-77
2023/08/15 01:41:05;;;;;;;8.47;7.60;;;;;;;23.78;nan;99249.47;4938972;28;20508;-78
2023/08/15 01:43:36;;;;;;;8.17;7.10;;;;;;;23.71;nan;99247.72;4960577;28;20461;-77
2023/08/15 01:46:02;;;;;;;7.73;6.90;;;;;;;23.69;nan;99244.41;4943900;28;20478;-77
2023/08/15 01:48:27;;;;;;;8.37;7.47;;;;;;;23.66;nan;99244.78;4960042;28;21111;-77
2023/08/15 01:50:53;;;;;;;9.70;6.67;;;;;;;23.60;nan;99244.53;4960155;28;20564;-77
2023/08/15 01:53:19;;;;;;;9.60;7.00;;;;;;;23.60;nan;99244.53;4944702;28;20211;-77
2023/08/15 01:55:45;;;;;;;8.33;7.00;;;;;;;23.59;nan;99248.22;4957287;28;20635;-77
2023/08/15 01:58:10;;;;;;;8.17;7.43;;;;;;;23.59;nan;99244.72;4958168;28;21046;-77
2023/08/15 02:00:35;;;;;;;8.60;7.80;;;;;;;23.57;nan;99244.91;4944215;28;20269;-77
2023/08/15 02:03:01;;;;;;;8.73;6.37;;;;;;;23.55;nan;99246.97;4948734;28;20630;-76
2023/08/15 02:05:26;;;;;;;7.10;6.50;;;;;;;23.53;nan;99257.03;4945492;28;20204;-77
2023/08/15 02:07:52;;;;;;;7.90;7.10;;;;;;;23.56;nan;99263.88;4958087;28;20197;-77
2023/08/15 02:10:17;;;;;;;6.70;6.10;;;;;;;23.56;nan;99262.00;4959942;28;20204;-77
2023/08/15 02:12:49;;;;;;;8.63;7.37;;;;;;;23.53;nan;99259.72;4945747;28;20261;-78
2023/08/15 02:15:15;;;;;;;8.03;6.77;;;;;;;23.53;nan;99266.94;4957914;28;20808;-77
2023/08/15 02:17:40;;;;;;;12.90;7.60;;;;;;;23.49;nan;99260.28;4958635;28;20458;-77
2023/08/15 02:20:06;;;;;;;7.03;6.33;;;;;;;23.42;nan;99254.84;4956881;28;21256;-77
2023/08/15 02:22:31;;;;;;;7.47;6.80;;;;;;;23.36;nan;99248.41;4959732;28;20208;-77
2023/08/15 02:24:57;;;;;;;8.23;7.43;;;;;;;23.37;nan;99249.22;4958244;28;20481;-77
2023/08/15 02:27:25;;;;;;;9.57;6.37;;;;;;;23.39;nan;99249.88;4955178;28;20199;-77
2023/08/15 02:29:51;;;;;;;7.37;6.03;;;;;;;23.38;nan;99248.19;4957704;28;20456;-77
2023/08/15 02:32:18;;;;;;;8.10;6.47;;;;;;;23.36;nan;99244.91;4958697;28;20293;-77
2023/08/15 02:34:44;;;;;;;8.60;7.13;;;;;;;23.37;nan;99235.81;4943339;28;20623;-77
2023/08/15 02:37:09;;;;;;;9.23;8.03;;;;;;;23.35;nan;99244.03;4958231;28;20498;-77
2023/08/15 02:39:34;;;;;;;15.20;7.67;;;;;;;23.36;nan;99247.56;4944294;28;20210;-76
2023/08/15 02:42:00;;;;;;;9.27;6.67;;;;;;;23.38;nan;99248.19;4958203;28;20208;-77
2023/08/15 02:44:25;;;;;;;8.43;6.87;;;;;;;23.41;nan;99251.34;4957361;28;20227;-77
2023/08/15 02:46:51;;;;;;;7.30;6.67;;;;;;;23.41;nan;99243.31;4956217;28;20197;-77
2023/08/15 02:49:16;;;;;;;8.73;6.40;;;;;;;23.42;nan;99244.13;4943826;28;20204;-77
2023/08/15 02:51:42;;;;;;;7.57;6.87;;;;;;;23.42;nan;99249.50;4958420;28;20602;-77
2023/08/15 02:54:07;;;;;;;9.70;7.40;;;;;;;23.44;nan;99251.97;4957630;28;20197;-77
2023/08/15 02:56:33;;;;;;;8.00;7.00;;;;;;;23.42;nan;99260.22;4938577;28;20224;-77
2023/08/15 02:58:58;;;;;;;7.57;6.70;;;;;;;23.41;nan;99259.38;4957207;28;20228;-77
2023/08/15 03:01:24;;;;;;;10.57;7.17;;;;;;;23.38;nan;99254.38;4944152;28;20223;-77
2023/08/15 03:03:49;;;;;;;8.97;6.70;;;;;;;23.39;nan;99255.22;4955713;28;20442;-77
2023/08/15 03:06:14;;;;;;;7.37;6.57;;;;;;;23.39;nan;99255.22;4955450;28;20703;-77
2023/08/15 03:08:40;;;;;;;8.87;6.37;;;;;;;23.39;nan;99263.28;4955298;28;20200;-76
2023/08/15 03:11:05;;;;;;;7.47;6.10;;;;;;;23.38;nan;99265.09;4958772;28;20259;-78
2023/08/15 03:13:31;;;;;;;8.40;6.97;;;;;;;23.36;nan;99275.19;4958586;28;20205;-77
2023/08/15 03:15:58;;;;;;;10.40;6.63;;;;;;;23.30;nan;99275.09;4940074;28;20215;-77
2023/08/15 03:18:27;;;;;;;8.37;6.40;;;;;;;23.26;nan;99266.63;4956726;28;20515;-77
2023/08/15 03:21:00;;;;;;;6.50;5.90;;;;;;;23.20;nan;99283.47;4960966;28;20453;-78
2023/08/15 03:23:28;;;;;;;8.53;7.70;;;;;;;23.05;nan;99275.41;4956120;28;20410;-77
2023/08/15 03:25:59;;;;;;;11.53;7.60;;;;;;;22.99;nan;99292.25;4956747;28;20490;-77
2023/08/15 03:28:29;;;;;;;9.23;6.80;;;;;;;23.02;nan;99289.19;4942542;28;20450;-77
2023/08/15 03:30:55;;;;;;;10.40;7.40;;;;;;;23.03;nan;99284.66;4941653;28;20455;-77
2023/08/15 03:33:23;;;;;;;7.90;7.03;;;;;;;23.05;nan;99285.31;4956992;28;20212;-80
2023/08/15 03:35:51;;;;;;;9.80;7.80;;;;;;;23.07;nan;99289.47;4940516;28;20449;-80
2023/08/15 03:38:21;;;;;;;9.27;7.23;;;;;;;23.08;nan;99282.25;4957979;28;20255;-80
2023/08/15 03:40:49;;;;;;;9.90;7.00;;;;;;;23.06;nan;99292.31;4959108;28;20876;-78
2023/08/15 03:43:15;;;;;;;7.90;6.60;;;;;;;23.05;nan;99296.03;4950168;28;21351;-79
2023/08/15 03:45:41;;;;;;;6.80;6.20;;;;;;;23.05;nan;99293.34;4943777;28;20555;-81
2023/08/15 03:48:07;;;;;;;8.20;6.90;;;;;;;23.04;nan;99295.19;4953735;28;20247;-80
2023/08/15 03:50:34;;;;;;;7.40;6.80;;;;;;;23.00;nan;99299.25;4956992;28;20267;-82
2023/08/15 03:53:00;;;;;;;8.80;7.67;;;;;;;22.97;nan;99294.28;4956900;28;20928;-80
2023/08/15 03:55:25;;;;;;;7.60;6.40;;;;;;;22.95;nan;99296.25;4958039;28;20463;-81
2023/08/15 03:57:51;;;;;;;7.50;6.90;;;;;;;22.94;nan;99297.28;4957872;28;20487;-85
2023/08/15 04:00:19;;;;;;;7.63;6.83;;;;;;;22.94;nan;99291.94;4959818;28;20216;-79
2023/08/15 04:02:45;;;;;;;7.90;7.10;;;;;;;22.91;nan;99298.50;4958379;28;20605;-77
2023/08/15 04:05:11;;;;;;;10.10;6.80;;;;;;;22.89;nan;99294.34;4957601;28;21236;-80
2023/08/15 04:07:38;;;;;;;8.60;7.80;;;;;;;22.83;nan;99295.91;4957783;28;20491;-78
2023/08/15 04:10:04;;;;;;;11.37;7.50;;;;;;;22.77;nan;99298.50;4953017;28;20525;-79
2023/08/15 04:12:29;;;;;;;8.33;7.57;;;;;;;22.68;nan;99303.94;4932544;28;20502;-81
2023/08/15 04:14:55;;;;;;;7.83;7.03;;;;;;;22.65;nan;99306.97;4950502;28;20562;-83
2023/08/15 04:17:20;;;;;;;9.90;7.43;;;;;;;22.65;nan;99301.59;4949498;28;20692;-82
2023/08/15 04:19:46;;;;;;;8.50;7.70;;;;;;;22.68;nan;99313.78;4949875;28;20561;-78
2023/08/15 04:22:13;;;;;;;10.73;7.50;;;;;;;22.68;nan;99311.13;4954101;28;20200;-78
2023/08/15 04:24:38;;;;;;;8.40;7.50;;;;;;;22.66;nan;99326.56;4951262;28;20862;-81
2023/08/15 04:27:06;;;;;;;8.33;7.43;;;;;;;22.62;nan;99326.06;4949494;28;20209;-83
2023/08/15 04:29:32;;;;;;;8.60;7.80;;;;;;;22.61;nan;99318.25;4931044;28;20193;-79
2023/08/15 04:31:58;;;;;;;9.10;6.60;;;;;;;22.61;nan;99323.59;4947695;28;20452;-80
2023/08/15 04:34:23;;;;;;;10.70;7.33;;;;;;;22.60;nan;99325.44;4932407;28;20926;-81
2023/08/15 04:36:49;;;;;;;8.30;7.03;;;;;;;22.55;nan;99325.16;4952815;28;20657;-81
2023/08/15 04:39:18;;;;;;;9.13;6.83;;;;;;;22.47;nan;99330.59;4955912;28;20489;-78
2023/08/15 04:41:44;;;;;;;6.57;6.00;;;;;;;22.38;nan;99321.78;4956965;28;20201;-81
2023/08/15 04:44:10;;;;;;;7.03;6.10;;;;;;;22.30;nan;99330.72;4938746;28;20518;-80
2023/08/15 04:46:36;;;;;;;11.13;7.00;;;;;;;22.24;nan;99334.09;4945801;28;20453;-79
2023/08/15 04:49:02;;;;;;;8.50;7.53;;;;;;;22.24;nan;99335.94;4948684;28;20659;-78
2023/08/15 04:51:28;;;;;;;10.70;6.83;;;;;;;22.26;nan;99334.75;4955526;28;20299;-79
2023/08/15 04:53:54;;;;;;;8.97;8.10;;;;;;;22.31;nan;99340.41;4951544;28;20196;-80
2023/08/15 04:56:21;;;;;;;10.73;7.10;;;;;;;22.36;nan;99339.03;4946448;28;20698;-81
2023/08/15 04:58:46;;;;;;;8.03;7.30;;;;;;;22.40;nan;99351.03;4948789;28;20291;-80
2023/08/15 05:01:12;;;;;;;7.70;6.90;;;;;;;22.44;nan;99350.50;4932434;28;21198;-79
2023/08/15 05:03:37;;;;;;;7.90;7.20;;;;;;;22.47;nan;99358.19;4942871;28;20195;-82
2023/08/15 05:06:03;;;;;;;8.60;7.80;;;;;;;22.51;nan;99353.28;4940805;28;20538;-79
2023/08/15 05:08:29;;;;;;;8.40;7.60;;;;;;;22.54;nan;99368.97;4943789;28;20713;-79
2023/08/15 05:10:54;;;;;;;7.10;6.33;;;;;;;22.61;nan;99363.75;4928571;28;20205;-82
2023/08/15 05:13:20;;;;;;;12.43;7.63;;;;;;;22.69;nan;99371.69;4927686;28;20213;-81
2023/08/15 05:15:46;;;;;;;7.50;6.80;;;;;;;22.77;nan;99371.63;4929550;28;20955;-81
2023/08/15 05:18:13;;;;;;;7.57;6.70;;;;;;;22.84;nan;99377.06;4931144;28;20462;-81
2023/08/15 05:20:38;;;;;;;7.60;6.80;;;;;;;22.90;nan;99379.00;4946848;28;20205;-80
2023/08/15 05:23:04;;;;;;;8.27;7.40;;;;;;;22.95;nan;99382.84;4945614;28;20891;-78
2023/08/15 05:25:29;;;;;;;7.67;6.97;;;;;;;23.03;nan;99395.31;4935822;28;20303;-79
2023/08/15 05:27:56;;;;;;;9.17;8.27;;;;;;;23.13;nan;99382.50;4958328;28;20198;-78
2023/08/15 05:30:23;;;;;;;7.50;6.70;;;;;;;23.24;nan;99391.91;4937326;28;20459;-80
2023/08/15 05:32:48;;;;;;;9.17;6.93;;;;;;;23.32;nan;99399.03;4928399;28;20463;-78
2023/08/15 05:35:14;;;;;;;12.60;8.20;;;;;;;23.40;nan;99398.94;4950148;28;21072;-80
2023/08/15 05:37:40;;;;;;;7.87;6.77;;;;;;;23.47;nan;99409.78;4960900;28;20197;-80
2023/08/15 05:40:07;;;;;;;10.03;6.90;;;;;;;23.49;nan;99415.75;4956591;28;20899;-80
2023/08/15 05:42:34;;;;;;;8.70;6.80;;;;;;;23.49;nan;99411.22;4957497;28;20875;-80
2023/08/15 05:44:59;;;;;;;9.93;7.13;;;;;;;23.44;nan;99413.66;5004589;22;20470;-74
2023/08/15 05:47:25;;;;;;;8.80;7.83;;;;;;;23.32;nan;99415.13;5045946;28;20218;-74
2023/08/15 05:49:50;;;;;;;8.47;7.57;;;;;;;23.27;nan;99421.03;5062485;28;20196;-75
2023/08/15 05:52:15;;;;;;;12.43;7.40;;;;;;;23.21;nan;99421.75;5073479;28;20201;-74
2023/08/15 05:54:41;;;;;;;10.00;7.27;;;;;;;23.18;nan;99422.97;5069208;28;20227;-74
2023/08/15 05:57:06;;;;;;;8.80;7.53;;;;;;;23.15;nan;99427.88;5067093;28;20208;-73
2023/08/15 05:59:32;;;;;;;7.70;6.37;;;;;;;23.13;nan;99411.97;5067751;28;20209;-74
2023/08/15 06:01:57;;;;;;;7.53;6.73;;;;;;;23.12;nan;99421.03;5067579;28;20200;-73
2023/08/15 06:04:22;;;;;;;8.80;7.13;;;;;;;23.13;nan;99420.00;5068008;28;20192;-73
2023/08/15 06:06:48;;;;;;;10.02;7.60;;;;;;;23.14;nan;99413.66;5070560;28;20483;-73
2023/08/15 06:09:13;;;;;;;8.40;7.00;;;;;;;23.10;nan;99422.22;5074438;28;20449;-73
2023/08/15 06:11:39;;;;;;;7.60;6.90;;;;;;;23.08;nan;99426.94;5075575;28;20292;-72
2023/08/15 06:14:04;;;;;;;7.33;6.60;;;;;;;23.09;nan;99426.75;5076766;28;20448;-72
2023/08/15 06:16:29;;;;;;;10.83;6.90;;;;;;;23.12;nan;99430.91;5074093;28;20208;-72
2023/08/15 06:18:56;;;;;;;8.30;7.50;;;;;;;23.12;nan;99437.09;5049732;28;20208;-72
2023/08/15 06:21:21;;;;;;;7.77;6.77;;;;;;;23.14;nan;99447.63;5070583;28;20245;-73
2023/08/15 06:23:46;;;;;;;7.60;6.80;;;;;;;23.18;nan;99452.44;5068082;28;20454;-73
2023/08/15 06:26:12;;;;;;;10.63;6.83;;;;;;;23.23;nan;99459.94;5069875;28;20598;-72
2023/08/15 06:28:37;;;;;;;10.20;8.53;;;;;;;23.27;nan;99471.13;5067176;28;20337;-73
2023/08/15 06:31:03;;;;;;;9.40;7.43;;;;;;;23.27;nan;99476.47;5066121;28;20239;-74
2023/08/15 06:33:28;;;;;;;7.93;6.83;;;;;;;23.29;nan;99486.00;5069727;28;20260;-74
2023/08/15 06:35:53;;;;;;;8.90;8.10;;;;;;;23.32;nan;99482.94;5065874;28;20210;-74
2023/08/15 06:38:19;;;;;;;8.40;7.63;;;;;;;23.37;nan;99493.13;5069274;28;20333;-74
2023/08/15 06:40:44;;;;;;;11.57;10.50;;;;;;;23.42;nan;99493.41;5064812;28;20618;-75
2023/08/15 06:43:10;;;;;;;9.90;8.17;;;;;;;23.47;nan;99488.34;5066250;28;20318;-74
2023/08/15 06:45:38;;;;;;;12.67;10.53;;;;;;;23.52;nan;99491.31;5065628;28;20887;-73
2023/08/15 06:48:05;;;;;;;10.40;9.33;;;;;;;23.55;nan;99488.25;5069883;28;20676;-73
2023/08/15 06:50:31;;;;;;;9.80;8.57;;;;;;;23.60;nan;99496.56;5060430;28;20435;-74
2023/08/15 06:52:57;;;;;;;7.37;6.67;;;;;;;23.67;nan;99493.97;5066407;28;20468;-73
2023/08/15 06:55:23;;;;;;;6.97;6.30;;;;;;;23.74;nan;99491.44;5065689;28;20471;-74
2023/08/15 06:57:49;;;;;;;9.70;7.80;;;;;;;23.79;nan;99492.53;5067860;28;20200;-74
2023/08/15 07:00:16;;;;;;;8.93;8.00;;;;;;;23.85;nan;99501.69;5066694;28;20821;-73
2023/08/15 07:02:41;;;;;;;13.10;8.47;;;;;;;23.91;nan;99498.25;5064534;28;20362;-73
2023/08/15 07:05:07;;;;;;;9.33;6.93;;;;;;;23.96;nan;99495.84;5065845;28;20576;-75
2023/08/15 07:07:33;;;;;;;9.67;8.40;;;;;;;24.00;nan;99496.28;5068025;28;20252;-74
2023/08/15 07:09:58;;;;;;;13.30;8.70;;;;;;;24.07;nan;99500.72;5067070;28;20539;-74
2023/08/15 07:12:24;;;;;;;10.07;8.83;;;;;;;24.25;nan;99496.81;5068089;28;20453;-73
2023/08/15 07:14:50;;;;;;;10.33;9.07;;;;;;;24.44;nan;99490.03;5069595;28;20224;-73
2023/08/15 07:17:15;;;;;;;8.27;7.43;;;;;;;24.61;nan;99496.00;5068198;28;20552;-74
2023/08/15 07:19:41;;;;;;;8.00;7.20;;;;;;;24.73;nan;99492.63;5068045;28;20208;-72
2023/08/15 07:22:06;;;;;;;7.67;6.77;;;;;;;24.94;nan;99486.38;5069285;28;20273;-73
2023/08/15 07:24:32;;;;;;;6.77;6.17;;;;;;;25.17;nan;99485.38;5067730;28;20449;-74
2023/08/15 07:26:57;;;;;;;12.20;6.60;;;;;;;25.44;nan;99486.38;5069229;28;20310;-74
2023/08/15 07:29:22;;;;;;;10.40;7.00;;;;;;;25.74;nan;99488.84;5065616;28;20197;-73
2023/08/15 07:31:48;;;;;;;11.57;7.03;;;;;;;25.93;nan;99480.06;5063346;28;20207;-74
2023/08/15 07:34:13;;;;;;;6.53;5.77;;;;;;;26.07;nan;99470.16;5068701;28;20408;-74
2023/08/15 07:36:39;;;;;;;7.20;6.50;;;;;;;26.14;nan;99468.34;5066265;28;20206;-74
2023/08/15 07:39:05;;;;;;;9.17;6.27;;;;;;;26.14;nan;99478.25;5065220;28;20873;-73
2023/08/15 07:41:31;;;;;;;7.40;6.73;;;;;;;26.26;nan;99479.34;5065634;28;20199;-74
2023/08/15 07:43:56;;;;;;;6.70;6.00;;;;;;;26.87;nan;99475.75;5063544;28;20453;-73
2023/08/15 07:46:22;;;;;;;8.87;5.70;;;;;;;27.67;nan;99479.19;5069677;28;20450;-73
2023/08/15 07:48:48;;;;;;;6.40;4.87;;;;;;;28.55;nan;99475.13;5062812;28;20695;-73
2023/08/15 07:51:13;;;;;;;7.13;4.70;;;;;;;29.44;nan;99467.75;5063474;28;20639;-74
2023/08/15 07:53:39;;;;;;;8.63;4.53;;;;;;;30.29;nan;99472.41;5064787;28;20287;-73
2023/08/15 07:56:04;;;;;;;5.20;4.10;;;;;;;31.08;nan;99465.78;5069965;28;20763;-74
2023/08/15 07:58:32;;;;;;;5.37;4.00;;;;;;;31.80;nan;99475.53;5066570;28;20687;-74
2023/08/15 08:00:58;;;;;;;3.27;2.80;;;;;;;32.33;nan;99477.16;5066853;28;20201;-73
2023/08/15 08:03:23;;;;;;;2.13;2.03;;;;;;;32.72;nan;99474.63;5067108;28;20469;-73
2023/08/15 08:05:49;;;;;;;3.43;2.50;;;;;;;33.10;nan;99483.16;5066572;28;20442;-74
2023/08/15 08:08:14;;;;;;;2.60;2.40;;;;;;;33.05;nan;99478.44;5069711;28;20196;-74
2023/08/15 08:10:40;;;;;;;3.97;2.60;;;;;;;32.60;nan;99480.13;5068147;28;20192;-74
2023/08/15 08:13:09;;;;;;;4.23;2.70;;;;;;;32.10;nan;99479.97;5063999;28;20211;-73
2023/08/15 08:15:34;;;;;;;3.13;2.50;;;;;;;31.96;nan;99485.69;5067953;28;20300;-74
2023/08/15 08:18:00;;;;;;;3.60;3.00;;;;;;;32.17;nan;99489.63;5067506;28;20763;-74
2023/08/15 08:20:26;;;;;;;5.60;2.83;;;;;;;32.45;nan;99485.25;5068383;28;20580;-74
2023/08/15 08:22:52;;;;;;;3.00;2.50;;;;;;;32.84;nan;99483.53;5066557;28;20291;-74
2023/08/15 08:25:21;;;;;;;4.37;2.83;;;;;;;33.21;nan;99488.50;5067025;28;20474;-74
2023/08/15 08:27:47;;;;;;;6.30;2.30;;;;;;;33.34;nan;99486.50;5068419;28;20243;-74
2023/08/15 08:30:15;;;;;;;2.50;1.73;;;;;;;33.44;nan;99482.03;5064541;28;20484;-74
2023/08/15 08:32:41;;;;;;;3.23;2.43;;;;;;;33.50;nan;99481.03;5064465;28;20552;-75
2023/08/15 08:35:07;;;;;;;2.53;2.20;;;;;;;33.53;nan;99477.00;5064952;28;20799;-74
2023/08/15 08:37:32;;;;;;;2.10;1.80;;;;;;;33.36;nan;99478.91;5066637;28;20220;-75
2023/08/15 08:39:58;;;;;;;3.73;1.87;;;;;;;33.02;nan;99482.47;5066712;28;20821;-75
2023/08/15 08:42:23;;;;;;;2.43;2.17;;;;;;;32.85;nan;99484.34;5064442;28;20664;-74
2023/08/15 08:44:50;;;;;;;2.13;2.00;;;;;;;32.66;nan;99496.53;5064798;28;20193;-75
2023/08/15 08:47:18;;;;;;;3.30;2.00;;;;;;;32.55;nan;99485.47;5068268;28;20573;-74
2023/08/15 08:49:45;;;;;;;2.70;1.90;;;;;;;32.60;nan;99485.56;5065539;28;20457;-74
2023/08/15 08:52:13;;;;;;;4.00;2.40;;;;;;;32.59;nan;99491.25;5067407;28;20511;-75
2023/08/15 08:54:39;;;;;;;5.03;1.90;;;;;;;32.50;nan;99498.16;5062881;28;20458;-75
2023/08/15 08:57:06;;;;;;;2.27;1.80;;;;;;;32.37;nan;99502.78;5066643;28;20469;-75
2023/08/15 08:59:33;;;;;;;3.70;2.10;;;;;;;32.26;nan;99492.78;5067841;28;23319;-75
2023/08/15 09:01:58;;;;;;;2.77;1.70;;;;;;;32.14;nan;99505.63;5066750;28;20466;-75
2023/08/15 09:04:24;;;;;;;3.70;1.90;;;;;;;31.98;nan;99509.09;5049485;28;20472;-75
2023/08/15 09:06:49;;;;;;;4.77;1.57;;;;;;;31.73;nan;99507.41;5070822;28;20200;-75
2023/08/15 09:09:15;;;;;;;1.77;1.50;;;;;;;31.44;nan;99507.34;5071551;28;20188;-75
2023/08/15 09:11:40;;;;;;;2.80;2.37;;;;;;;31.19;nan;99521.13;5052576;28;20683;-75
2023/08/15 09:14:06;;;;;;;3.70;2.87;;;;;;;30.98;nan;99525.22;5049483;28;20556;-74
2023/08/15 09:16:32;;;;;;;4.00;2.60;;;;;;;30.83;nan;99522.09;5068957;28;20209;-75
2023/08/15 09:19:03;;;;;;;3.33;2.03;;;;;;;30.76;nan;99526.75;5069997;28;20995;-75
2023/08/15 09:21:29;;;;;;;4.13;2.30;;;;;;;30.72;nan;99522.88;5071047;28;20504;-75
2023/08/15 09:23:56;;;;;;;3.77;2.20;;;;;;;30.78;nan;99530.91;5067459;28;20580;-75
2023/08/15 09:26:23;;;;;;;4.07;2.40;;;;;;;30.93;nan;99533.22;5068949;28;20474;-75
2023/08/15 09:28:49;;;;;;;2.10;1.90;;;;;;;31.13;nan;99530.19;5071499;28;20446;-75
2023/08/15 09:31:15;;;;;;;3.97;2.60;;;;;;;31.42;nan;99531.19;5067980;28;21338;-75
2023/08/15 09:33:41;;;;;;;3.37;3.07;;;;;;;31.71;nan;99534.84;5049548;28;20473;-75
2023/08/15 09:36:08;;;;;;;4.53;3.22;;;;;;;31.79;nan;99536.38;5067481;28;20436;-75
2023/08/15 09:38:36;;;;;;;5.67;2.77;;;;;;;31.70;nan;99546.78;5069634;28;20692;-75
2023/08/15 09:41:01;;;;;;;4.00;3.20;;;;;;;31.66;nan;99556.44;5070389;28;20462;-76
2023/08/15 09:43:27;;;;;;;2.30;1.83;;;;;;;31.58;nan;99555.97;5066681;28;20466;-75
2023/08/15 09:45:53;;;;;;;6.97;2.77;;;;;;;31.48;nan;99560.09;5046998;28;20228;-75
2023/08/15 09:48:22;;;;;;;4.07;2.27;;;;;;;31.36;nan;99556.53;5070378;28;20233;-73
2023/08/15 09:50:48;;;;;;;2.53;2.33;;;;;;;31.21;nan;99561.56;5069936;28;20777;-75
2023/08/15 09:53:14;;;;;;;5.70;2.93;;;;;;;31.09;nan;99565.09;5068888;28;20855;-74
2023/08/15 09:55:41;;;;;;;2.27;2.07;;;;;;;30.98;nan;99567.81;5072440;28;20458;-75
2023/08/15 09:58:07;;;;;;;2.20;1.77;;;;;;;30.91;nan;99573.31;5071896;28;20469;-75
2023/08/15 10:00:34;;;;;;;2.67;2.20;;;;;;;30.74;nan;99577.72;5070622;28;20446;-74
2023/08/15 10:03:09;;;;;;;3.23;1.80;;;;;;;30.57;nan;99578.34;5070091;28;20918;-75
2023/08/15 10:05:39;;;;;;;3.33;1.80;;;;;;;30.41;nan;99579.00;5070968;28;20466;-76
2023/08/15 10:08:05;;;;;;;7.63;2.57;;;;;;;30.27;nan;99588.31;5070607;28;21039;-75
2023/08/15 10:10:35;;;;;;;1.80;1.70;;;;;;;30.18;nan;99585.88;5072494;28;20819;-75
2023/08/15 10:13:02;;;;;;;2.30;1.90;;;;;;;30.21;nan;99580.00;5050041;28;20838;-76
2023/08/15 10:15:30;;;;;;;2.80;1.50;;;;;;;30.25;nan;99582.31;5067921;28;20470;-75
2023/08/15 10:17:57;;;;;;;2.63;2.20;;;;;;;30.28;nan;99579.97;5070424;28;20450;-74
2023/08/15 10:20:23;;;;;;;2.33;1.60;;;;;;;30.35;nan;99585.28;5070855;28;20856;-76
2023/08/15 10:22:51;;;;;;;2.07;1.50;;;;;;;30.50;nan;99571.38;5069217;28;21137;-74
2023/08/15 10:25:31;;;;;;;2.33;1.53;;;;;;;30.52;nan;99574.69;5069087;28;20219;-74
2023/08/15 10:27:56;;;;;;;2.87;1.50;;;;;;;30.49;nan;99580.53;5066320;28;20481;-75
2023/08/15 10:30:36;;;;;;;1.60;1.30;;;;;;;30.50;nan;99565.94;5068961;28;20898;-75
2023/08/15 10:33:13;;;;;;;2.43;1.83;;;;;;;30.51;nan;99565.69;5071742;28;20223;-76
2023/08/15 10:35:47;;;;;;;2.20;1.70;;;;;;;30.73;nan;99566.03;5066169;28;20460;-75
2023/08/15 10:38:14;;;;;;;1.83;1.43;;;;;;;31.01;nan;99565.44;5068775;28;20478;-77
2023/08/15 10:40:42;;;;;;;7.00;1.67;;;;;;;31.18;nan;99556.63;5067994;28;20462;-75
2023/08/15 10:43:13;;;;;;;2.80;1.93;;;;;;;31.34;nan;99549.69;5070502;28;20789;-75
2023/08/15 10:45:52;;;;;;;3.17;1.90;;;;;;;31.49;nan;99550.09;5066449;28;20969;-76
2023/08/15 10:48:37;;;;;;;1.73;1.50;;;;;;;31.63;nan;99553.38;5067889;28;20476;-76
2023/08/15 10:51:03;;;;;;;6.30;1.70;;;;;;;31.75;nan;99556.91;5067667;28;20458;-75
2023/08/15 10:53:28;;;;;;;1.67;1.57;;;;;;;31.85;nan;99549.00;5070615;28;20574;-75
2023/08/15 10:55:54;;;;;;;262.17;59.10;;;;;;;31.88;nan;99551.22;5065006;28;20201;-75
2023/08/15 10:58:21;;;;;;;2.90;1.80;;;;;;;31.94;nan;99546.75;5064303;28;20196;-75
2023/08/15 11:00:49;;;;;;;1.50;1.40;;;;;;;32.04;nan;99546.16;5067386;28;20551;-76
2023/08/15 11:03:15;;;;;;;1.70;1.60;;;;;;;32.16;nan;99542.34;5068411;28;20924;-76
2023/08/15 11:05:41;;;;;;;1.57;1.47;;;;;;;32.29;nan;99541.22;5065347;28;20430;-75
2023/08/15 11:08:14;;;;;;;1.90;1.60;;;;;;;32.37;nan;99540.84;5065894;28;20442;-76
2023/08/15 11:10:43;;;;;;;2.33;1.57;;;;;;;32.26;nan;99535.47;5064337;28;20741;-75
2023/08/15 11:13:09;;;;;;;3.27;1.63;;;;;;;32.14;nan;99536.31;5066437;28;20458;-76
2023/08/15 11:15:34;;;;;;;2.17;1.63;;;;;;;32.09;nan;99540.84;5063596;28;20826;-76
2023/08/15 11:18:00;;;;;;;6.00;2.57;;;;;;;32.06;nan;99541.31;5068143;28;20204;-76
2023/08/15 11:20:32;;;;;;;1.80;1.63;;;;;;;32.07;nan;99537.53;5068873;28;20819;-74
2023/08/15 11:22:58;;;;;;;2.57;1.73;;;;;;;32.06;nan;99538.59;5067929;28;20248;-72
2023/08/15 11:25:24;;;;;;;2.43;1.63;;;;;;;32.03;nan;99536.34;5066867;28;20599;-73
2023/08/15 11:27:50;;;;;;;1.90;1.80;;;;;;;32.06;nan;99533.97;5065306;28;20226;-73
2023/08/15 11:30:19;;;;;;;7.50;2.60;;;;;;;31.96;nan;99537.31;5067089;28;20946;-73
2023/08/15 11:32:45;;;;;;;3.23;2.13;;;;;;;32.03;nan;99542.63;5068689;28;20591;-73
2023/08/15 11:35:11;;;;;;;2.47;2.10;;;;;;;32.12;nan;99533.00;5063096;28;20442;-74
2023/08/15 11:37:37;;;;;;;3.27;2.00;;;;;;;32.22;nan;99535.13;5068826;28;20458;-73
2023/08/15 11:40:04;;;;;;;2.60;1.60;;;;;;;32.29;nan;99537.69;5066248;28;20466;-73
2023/08/15 11:42:31;;;;;;;2.03;1.83;;;;;;;32.37;nan;99531.88;5068375;28;20656;-73
2023/08/15 11:45:18;;;;;;;2.50;1.70;;;;;;;32.46;nan;99525.00;5069278;28;20466;-73
2023/08/15 11:47:58;;;;;;;4.80;1.70;;;;;;;32.53;nan;99519.41;5067121;28;20450;-75